createdAt,value
2019-03-27T00:00:36.913Z,18.20
2019-03-27T00:03:05.472Z,19.80
2019-03-27T00:05:33.935Z,20.67
2019-03-27T00:08:02.444Z,22.67
2019-03-27T00:10:30.916Z,20.03
2019-03-27T00:13:18.831Z,17.60
2019-03-27T00:15:47.311Z,23.10
2019-03-27T00:18:15.770Z,21.37
2019-03-27T00:20:44.253Z,20.63
2019-03-27T00:23:12.741Z,21.93
2019-03-27T00:25:41.371Z,21.70
2019-03-27T00:28:10.010Z,21.30
2019-03-27T00:30:38.539Z,21.40
2019-03-27T00:33:07.140Z,21.33
2019-03-27T00:35:35.701Z,22.23
2019-03-27T00:38:04.237Z,20.53
2019-03-27T00:40:32.688Z,21.90
2019-03-27T00:43:01.332Z,22.47
2019-03-27T00:45:29.799Z,20.40
2019-03-27T00:47:58.252Z,22.53
2019-03-27T00:50:26.751Z,22.33
2019-03-27T00:52:55.207Z,21.03
2019-03-27T00:55:23.671Z,19.73
2019-03-27T00:57:52.155Z,20.00
2019-03-27T01:00:40.888Z,20.92
2019-03-27T01:03:09.466Z,24.00
2019-03-27T01:05:37.923Z,24.20
2019-03-27T01:08:06.476Z,22.13
2019-03-27T01:10:34.990Z,24.67
2019-03-27T01:13:03.459Z,23.83
2019-03-27T01:15:39.612Z,22.60
2019-03-27T01:18:02.283Z,19.30
2019-03-27T01:20:30.735Z,19.90
2019-03-27T01:22:59.274Z,23.90
2019-03-27T01:25:27.963Z,22.97
2019-03-27T01:27:56.430Z,18.43
2019-03-27T01:30:24.892Z,25.17
2019-03-27T01:32:53.460Z,23.50
2019-03-27T01:35:21.995Z,20.73
2019-03-27T01:37:50.507Z,22.97
2019-03-27T01:40:19.154Z,24.40
2019-03-27T01:42:47.699Z,27.13
2019-03-27T01:45:16.296Z,23.60
2019-03-27T01:47:44.805Z,25.87
2019-03-27T01:50:13.477Z,23.73
2019-03-27T01:52:42.020Z,22.17
2019-03-27T01:55:10.661Z,24.27
2019-03-27T01:57:39.148Z,22.27
2019-03-27T02:00:08.611Z,22.30
2019-03-27T02:02:37.115Z,19.97
2019-03-27T02:05:06.946Z,25.93
2019-03-27T02:07:35.568Z,24.17
2019-03-27T02:10:06.889Z,23.90
2019-03-27T02:12:35.384Z,20.43
2019-03-27T02:15:05.760Z,22.07
2019-03-27T02:17:34.312Z,24.27
2019-03-27T02:20:02.787Z,21.70
2019-03-27T02:22:31.256Z,24.67
2019-03-27T02:24:59.748Z,23.60
2019-03-27T02:27:28.220Z,22.20
2019-03-27T02:29:56.676Z,23.60
2019-03-27T02:32:25.161Z,20.33
2019-03-27T02:34:53.619Z,19.90
2019-03-27T02:37:22.083Z,22.23
2019-03-27T02:39:50.568Z,21.00
2019-03-27T02:42:19.088Z,21.33
2019-03-27T02:44:47.549Z,20.47
2019-03-27T02:47:16.028Z,21.33
2019-03-27T02:49:44.492Z,23.30
2019-03-27T02:52:13.017Z,22.33
2019-03-27T02:54:41.576Z,23.20
2019-03-27T02:57:10.050Z,23.60
2019-03-27T02:59:38.953Z,24.60
2019-03-27T03:02:07.520Z,21.37
2019-03-27T03:04:36.058Z,19.83
2019-03-27T03:07:04.534Z,24.43
2019-03-27T03:09:33.023Z,23.17
2019-03-27T03:12:01.521Z,22.93
2019-03-27T03:14:30.009Z,23.57
2019-03-27T03:16:58.488Z,27.37
2019-03-27T03:19:27.021Z,23.80
2019-03-27T03:21:55.619Z,23.10
2019-03-27T03:24:24.153Z,25.10
2019-03-27T03:26:52.622Z,22.67
2019-03-27T03:29:21.095Z,23.57
2019-03-27T03:31:49.713Z,22.30
2019-03-27T03:34:18.237Z,24.60
2019-03-27T03:36:46.700Z,24.00
2019-03-27T03:39:15.209Z,21.87
2019-03-27T03:41:43.950Z,23.40
2019-03-27T03:44:12.405Z,24.50
2019-03-27T03:46:52.410Z,21.93
2019-03-27T03:49:11.314Z,26.60
2019-03-27T03:51:40.214Z,22.67
2019-03-27T03:54:09.228Z,24.57
2019-03-27T03:56:40.723Z,26.07
2019-03-27T03:59:12.410Z,22.07
2019-03-27T04:01:43.405Z,24.23
2019-03-27T04:04:13.501Z,21.43
2019-03-27T04:06:42.019Z,23.57
2019-03-27T04:09:10.564Z,23.50
2019-03-27T04:11:39.098Z,22.43
2019-03-27T04:14:07.570Z,22.93
2019-03-27T04:16:36.164Z,22.13
2019-03-27T04:19:04.698Z,24.43
2019-03-27T04:21:33.245Z,21.10
2019-03-27T04:24:01.768Z,23.10
2019-03-27T04:26:33.424Z,24.33
2019-03-27T04:29:00.512Z,23.60
2019-03-27T04:31:28.969Z,25.47
2019-03-27T04:33:57.464Z,23.60
2019-03-27T04:36:25.992Z,22.23
2019-03-27T04:38:54.445Z,24.73
2019-03-27T04:41:22.944Z,22.53
2019-03-27T04:43:51.413Z,22.00
2019-03-27T04:46:19.975Z,20.27
2019-03-27T04:48:48.467Z,24.97
2019-03-27T04:51:16.929Z,26.03
2019-03-27T04:53:45.396Z,22.43
2019-03-27T04:56:13.998Z,25.33
2019-03-27T04:58:43.124Z,19.57
2019-03-27T05:01:11.704Z,22.20
2019-03-27T05:03:40.196Z,24.90
2019-03-27T05:06:08.670Z,23.73
2019-03-27T05:08:37.253Z,24.37
2019-03-27T05:11:05.827Z,24.20
2019-03-27T05:13:34.316Z,24.87
2019-03-27T05:16:02.860Z,30.17
2019-03-27T05:18:31.367Z,28.23
2019-03-27T05:20:59.827Z,25.97
2019-03-27T05:23:28.331Z,21.90
2019-03-27T05:25:56.835Z,28.53
2019-03-27T05:28:25.299Z,23.03
2019-03-27T05:30:53.818Z,24.77
2019-03-27T05:33:22.911Z,23.80
2019-03-27T05:35:51.380Z,27.07
2019-03-27T05:38:19.979Z,27.67
2019-03-27T05:40:48.499Z,23.73
2019-03-27T05:43:16.977Z,29.10
2019-03-27T05:45:45.537Z,28.30
2019-03-27T05:48:14.003Z,23.20
2019-03-27T05:50:42.468Z,24.43
2019-03-27T05:53:10.958Z,24.57
2019-03-27T05:55:39.419Z,22.73
2019-03-27T05:58:07.884Z,27.97
2019-03-27T06:00:36.452Z,23.87
2019-03-27T06:03:04.910Z,26.40
2019-03-27T06:05:33.383Z,25.97
2019-03-27T06:08:01.872Z,23.13
2019-03-27T06:10:30.400Z,21.70
2019-03-27T06:12:58.904Z,30.97
2019-03-27T06:15:27.391Z,24.17
2019-03-27T06:17:55.848Z,25.50
2019-03-27T06:20:24.381Z,26.47
2019-03-27T06:22:52.872Z,27.63
2019-03-27T06:25:21.442Z,27.30
2019-03-27T06:27:49.936Z,30.60
2019-03-27T06:30:18.484Z,29.13
2019-03-27T06:32:46.976Z,29.00
2019-03-27T06:35:15.557Z,27.97
2019-03-27T06:37:44.121Z,24.60
2019-03-27T06:40:12.772Z,28.13
2019-03-27T06:42:41.249Z,29.00
2019-03-27T06:45:10.025Z,30.43
2019-03-27T06:47:38.565Z,26.10
2019-03-27T06:50:07.883Z,28.83
2019-03-27T06:52:36.365Z,25.53
2019-03-27T06:55:07.971Z,24.37
2019-03-27T06:57:36.508Z,24.00
2019-03-27T07:00:10.278Z,23.17
2019-03-27T07:02:38.802Z,21.53
2019-03-27T07:05:08.328Z,26.17
2019-03-27T07:07:36.833Z,24.33
2019-03-27T07:10:07.198Z,23.43
2019-03-27T07:12:35.728Z,24.20
2019-03-27T07:15:05.160Z,22.60
2019-03-27T07:17:33.660Z,16.77
2019-03-27T07:20:02.104Z,12.43
2019-03-27T07:22:30.696Z,18.47
2019-03-27T07:24:59.229Z,16.70
2019-03-27T07:27:27.794Z,15.83
2019-03-27T07:29:56.286Z,13.97
2019-03-27T07:32:24.754Z,16.07
2019-03-27T07:34:53.208Z,15.93
2019-03-27T07:37:21.760Z,19.40
2019-03-27T07:39:50.307Z,18.93
2019-03-27T07:42:18.920Z,14.07
2019-03-27T07:44:47.487Z,15.93
2019-03-27T07:47:16.039Z,14.47
2019-03-27T07:49:44.521Z,13.00
2019-03-27T07:52:12.997Z,13.47
2019-03-27T07:54:41.543Z,13.43
2019-03-27T07:57:10.032Z,10.57
2019-03-27T07:59:38.489Z,12.83
2019-03-27T08:02:06.964Z,15.00
2019-03-27T08:04:35.455Z,12.77
2019-03-27T08:07:03.983Z,12.27
2019-03-27T08:09:32.440Z,12.67
2019-03-27T08:12:01.089Z,10.20
2019-03-27T08:14:29.569Z,15.40
2019-03-27T08:16:58.093Z,15.63
2019-03-27T08:19:26.584Z,10.93
2019-03-27T08:21:55.095Z,11.00
2019-03-27T08:24:24.547Z,12.13
2019-03-27T08:26:53.090Z,10.43
2019-03-27T08:29:21.553Z,10.47
2019-03-27T08:31:50.030Z,11.93
2019-03-27T08:34:18.530Z,9.57
2019-03-27T08:36:47.069Z,11.93
2019-03-27T08:39:34.893Z,13.07
2019-03-27T08:42:03.468Z,10.40
2019-03-27T08:44:31.999Z,12.47
2019-03-27T08:47:00.492Z,8.47
2019-03-27T08:49:28.955Z,9.17
2019-03-27T08:51:57.480Z,11.67
2019-03-27T08:54:26.028Z,11.20
2019-03-27T08:56:54.484Z,10.83
2019-03-27T08:59:23.132Z,8.63
2019-03-27T09:01:51.771Z,9.90
2019-03-27T09:04:20.248Z,11.03
2019-03-27T09:06:48.793Z,9.67
2019-03-27T09:09:17.403Z,7.57
2019-03-27T09:11:45.937Z,5.30
2019-03-27T09:14:14.469Z,8.10
2019-03-27T09:16:42.957Z,6.07
2019-03-27T09:19:11.442Z,10.97
2019-03-27T09:21:39.944Z,8.23
2019-03-27T09:24:08.438Z,7.17
2019-03-27T09:26:37.036Z,6.10
2019-03-27T09:29:08.221Z,4.83
2019-03-27T09:31:44.806Z,6.13
2019-03-27T09:34:05.964Z,9.07
2019-03-27T09:36:34.464Z,7.87
2019-03-27T09:39:03.624Z,6.70
2019-03-27T09:41:32.104Z,9.47
2019-03-27T09:44:00.562Z,9.67
2019-03-27T09:46:29.044Z,6.93
2019-03-27T09:48:57.501Z,9.77
2019-03-27T09:51:25.980Z,6.33
2019-03-27T09:53:54.548Z,7.57
2019-03-27T09:56:22.996Z,5.37
2019-03-27T09:58:51.464Z,4.87
2019-03-27T10:01:20.061Z,7.20
2019-03-27T10:03:48.523Z,5.40
2019-03-27T10:06:17.008Z,7.30
2019-03-27T10:08:45.502Z,7.13
2019-03-27T10:11:15.500Z,7.40
2019-03-27T10:13:43.964Z,7.37
2019-03-27T10:16:12.443Z,6.20
2019-03-27T10:18:40.987Z,6.00
2019-03-27T10:21:09.528Z,4.77
2019-03-27T10:23:38.008Z,6.27
2019-03-27T10:26:06.489Z,8.63
2019-03-27T10:28:35.079Z,7.10
2019-03-27T10:31:03.635Z,6.30
2019-03-27T10:33:32.111Z,7.83
2019-03-27T10:36:00.654Z,8.13
2019-03-27T10:38:29.198Z,10.47
2019-03-27T10:40:57.670Z,6.23
2019-03-27T10:43:26.120Z,6.13
2019-03-27T10:45:54.598Z,7.17
2019-03-27T10:48:23.057Z,5.67
2019-03-27T10:50:51.551Z,10.30
2019-03-27T10:53:20.094Z,4.03
2019-03-27T10:55:48.551Z,10.03
2019-03-27T10:58:17.105Z,6.07
2019-03-27T11:00:48.653Z,10.33
2019-03-27T11:03:17.257Z,6.37
2019-03-27T11:05:45.731Z,6.53
2019-03-27T11:08:14.225Z,8.17
2019-03-27T11:10:42.682Z,7.43
2019-03-27T11:13:11.157Z,9.23
2019-03-27T11:15:39.644Z,9.20
2019-03-27T11:18:08.151Z,11.63
2019-03-27T11:20:36.641Z,8.93
2019-03-27T11:23:05.139Z,12.00
2019-03-27T11:25:33.740Z,9.77
2019-03-27T11:28:02.192Z,5.43
2019-03-27T11:30:38.025Z,5.30
2019-03-27T11:33:07.212Z,9.07
2019-03-27T11:35:35.727Z,8.30
2019-03-27T11:38:04.312Z,7.53
2019-03-27T11:40:32.783Z,4.83
2019-03-27T11:43:01.416Z,12.80
2019-03-27T11:45:30.292Z,13.70
2019-03-27T11:47:58.752Z,11.33
2019-03-27T11:50:27.437Z,10.87
2019-03-27T11:52:55.981Z,9.60
2019-03-27T11:55:24.556Z,8.53
2019-03-27T11:57:53.020Z,8.37
2019-03-27T12:00:21.649Z,8.63
2019-03-27T12:02:50.184Z,10.90
2019-03-27T12:05:18.653Z,12.00
2019-03-27T12:07:47.130Z,8.90
2019-03-27T12:10:16.128Z,10.40
2019-03-27T12:12:47.975Z,11.33
2019-03-27T12:15:15.204Z,8.60
2019-03-27T12:17:43.675Z,8.30
2019-03-27T12:20:13.179Z,7.90
2019-03-27T12:22:41.738Z,5.17
2019-03-27T12:25:10.329Z,7.27
2019-03-27T12:27:38.813Z,7.67
2019-03-27T12:30:08.408Z,6.80
2019-03-27T12:32:36.948Z,4.67
2019-03-27T12:35:06.348Z,7.43
2019-03-27T12:37:34.881Z,6.80
2019-03-27T12:40:11.464Z,7.13
2019-03-27T12:42:34.852Z,6.30
2019-03-27T12:45:04.294Z,6.83
2019-03-27T12:47:32.812Z,6.63
2019-03-27T12:50:01.280Z,5.30
2019-03-27T12:52:29.753Z,9.47
2019-03-27T12:54:58.224Z,8.43
2019-03-27T12:57:26.741Z,7.83
2019-03-27T12:59:55.220Z,7.97
2019-03-27T13:02:23.761Z,5.37
2019-03-27T13:05:11.985Z,7.23
2019-03-27T13:07:49.776Z,10.77
2019-03-27T13:10:11.028Z,6.47
2019-03-27T13:12:39.481Z,5.70
2019-03-27T13:15:09.096Z,5.73
2019-03-27T13:17:37.552Z,7.80
2019-03-27T13:20:07.386Z,8.13
2019-03-27T13:22:38.224Z,7.97
2019-03-27T13:25:07.831Z,8.63
2019-03-27T13:27:36.368Z,5.80
2019-03-27T13:30:08.445Z,10.40
2019-03-27T13:32:36.912Z,4.73
2019-03-27T13:35:07.107Z,5.40
2019-03-27T13:37:35.684Z,4.23
2019-03-27T13:40:06.756Z,4.30
2019-03-27T13:42:35.229Z,6.60
2019-03-27T13:45:05.426Z,7.50
2019-03-27T13:47:34.023Z,7.17
2019-03-27T13:50:02.683Z,7.60
2019-03-27T13:52:31.309Z,6.90
2019-03-27T13:54:59.795Z,7.53
2019-03-27T13:57:28.261Z,6.07
2019-03-27T13:59:56.825Z,7.50
2019-03-27T14:02:25.279Z,4.97
2019-03-27T14:04:53.742Z,6.37
2019-03-27T14:07:22.232Z,6.43
2019-03-27T14:09:50.829Z,4.33
2019-03-27T14:12:19.288Z,7.33
2019-03-27T14:14:50.710Z,8.20
2019-03-27T14:17:19.456Z,4.10
2019-03-27T14:19:47.917Z,4.60
2019-03-27T14:22:16.416Z,3.80
2019-03-27T14:24:44.868Z,4.67
2019-03-27T14:27:13.328Z,5.50
2019-03-27T14:29:41.833Z,5.97
2019-03-27T14:32:10.759Z,3.83
2019-03-27T14:34:39.317Z,4.43
2019-03-27T14:37:07.981Z,4.13
2019-03-27T14:39:36.584Z,5.50
2019-03-27T14:42:05.184Z,5.17
2019-03-27T14:44:33.751Z,6.93
2019-03-27T14:47:02.290Z,8.23
2019-03-27T14:49:30.739Z,5.60
2019-03-27T14:52:08.269Z,6.70
2019-03-27T14:54:29.419Z,5.40
2019-03-27T14:56:57.888Z,5.63
2019-03-27T14:59:26.450Z,3.10
2019-03-27T15:01:54.968Z,4.97
2019-03-27T15:04:23.500Z,5.10
2019-03-27T15:06:52.226Z,4.70
2019-03-27T15:09:20.676Z,5.83
2019-03-27T15:11:49.147Z,6.83
2019-03-27T15:14:17.697Z,6.27
2019-03-27T15:17:05.812Z,8.27
2019-03-27T15:19:34.423Z,4.30
2019-03-27T15:22:02.887Z,7.50
2019-03-27T15:24:31.348Z,4.57
2019-03-27T15:26:59.895Z,5.47
2019-03-27T15:29:28.360Z,7.17
2019-03-27T15:31:56.838Z,5.40
2019-03-27T15:34:25.382Z,5.83
2019-03-27T15:36:53.880Z,5.97
2019-03-27T15:39:22.338Z,5.87
2019-03-27T15:41:50.829Z,4.93
2019-03-27T15:44:19.275Z,6.60
2019-03-27T15:46:47.732Z,5.70
2019-03-27T15:49:16.213Z,6.73
2019-03-27T15:51:44.673Z,6.67
2019-03-27T15:54:13.139Z,3.27
2019-03-27T15:56:41.621Z,6.23
2019-03-27T15:59:10.171Z,5.63
2019-03-27T16:01:38.628Z,5.73
2019-03-27T16:04:10.644Z,6.03
2019-03-27T16:06:41.888Z,3.57
2019-03-27T16:09:14.716Z,5.07
2019-03-27T16:11:46.364Z,6.93
2019-03-27T16:14:17.546Z,6.97
2019-03-27T16:17:06.947Z,5.27
2019-03-27T16:19:22.047Z,6.63
2019-03-27T16:21:53.740Z,7.00
2019-03-27T16:24:25.331Z,5.93
2019-03-27T16:27:04.444Z,3.23
2019-03-27T16:29:29.935Z,4.00
2019-03-27T16:32:01.273Z,6.30
2019-03-27T16:34:32.915Z,4.77
2019-03-27T16:37:04.460Z,5.00
2019-03-27T16:39:36.523Z,5.17
2019-03-27T16:42:07.886Z,7.27
2019-03-27T16:44:39.285Z,4.50
2019-03-27T16:47:11.445Z,6.70
2019-03-27T16:49:43.004Z,5.83
2019-03-27T16:52:14.567Z,7.60
2019-03-27T16:54:47.068Z,5.13
2019-03-27T16:57:18.350Z,6.47
2019-03-27T16:59:51.162Z,9.03
2019-03-27T17:02:23.295Z,6.53
2019-03-27T17:04:55.513Z,7.93
2019-03-27T17:07:26.316Z,6.43
2019-03-27T17:09:57.467Z,8.53
2019-03-27T17:12:31.465Z,7.10
2019-03-27T17:15:03.303Z,6.93
2019-03-27T17:17:38.459Z,8.27
2019-03-27T17:20:12.032Z,7.53
2019-03-27T17:22:43.976Z,5.17
2019-03-27T17:25:15.237Z,6.17
2019-03-27T17:27:46.419Z,8.63
2019-03-27T17:30:18.214Z,6.13
2019-03-27T17:32:49.878Z,10.33
2019-03-27T17:35:20.938Z,7.90
2019-03-27T17:37:52.422Z,10.67
2019-03-27T17:40:24.417Z,10.20
2019-03-27T17:42:59.203Z,11.63
2019-03-27T17:45:30.848Z,8.35
2019-03-27T17:48:02.231Z,6.83
2019-03-27T17:50:34.213Z,8.07
2019-03-27T17:53:05.966Z,10.33
2019-03-27T17:55:37.318Z,10.67
2019-03-27T17:58:08.677Z,7.97
2019-03-27T18:00:48.721Z,10.17
2019-03-27T18:03:20.275Z,9.43
2019-03-27T18:05:51.579Z,9.47
2019-03-27T18:08:22.198Z,11.27
2019-03-27T18:10:54.324Z,6.60
2019-03-27T18:13:25.756Z,9.73
2019-03-27T18:15:57.894Z,9.07
2019-03-27T18:18:29.418Z,11.83
2019-03-27T18:21:01.339Z,10.27
2019-03-27T18:23:45.392Z,8.00
2019-03-27T18:26:06.367Z,9.60
2019-03-27T18:28:38.172Z,10.77
2019-03-27T18:31:09.403Z,13.30
2019-03-27T18:33:41.000Z,12.20
2019-03-27T18:36:11.195Z,12.17
2019-03-27T18:38:45.861Z,8.03
2019-03-27T18:41:17.523Z,14.90
2019-03-27T18:43:50.234Z,11.60
2019-03-27T18:46:21.085Z,10.40
2019-03-27T18:48:52.629Z,12.30
2019-03-27T18:51:23.304Z,11.87
2019-03-27T18:54:00.029Z,11.47
2019-03-27T18:56:28.066Z,11.30
2019-03-27T18:58:59.317Z,9.00
2019-03-27T19:01:30.644Z,12.30
2019-03-27T19:04:02.509Z,13.07
2019-03-27T19:06:33.688Z,12.47
2019-03-27T19:09:08.369Z,13.67
2019-03-27T19:11:39.313Z,14.70
2019-03-27T19:14:10.627Z,11.70
2019-03-27T19:16:41.397Z,11.20
2019-03-27T19:19:12.584Z,14.53
2019-03-27T19:21:43.826Z,11.77
2019-03-27T19:24:17.030Z,13.00
2019-03-27T19:26:48.231Z,11.17
2019-03-27T19:29:18.866Z,12.43
2019-03-27T19:31:50.120Z,12.80
2019-03-27T19:34:21.110Z,11.77
2019-03-27T19:36:52.030Z,11.47
2019-03-27T19:39:24.318Z,13.00
2019-03-27T19:41:55.706Z,12.03
2019-03-27T19:44:27.283Z,12.93
2019-03-27T19:46:59.089Z,12.10
2019-03-27T19:49:30.355Z,8.70
2019-03-27T19:52:01.975Z,11.67
2019-03-27T19:54:33.292Z,9.30
2019-03-27T19:57:05.210Z,7.23
2019-03-27T19:59:37.471Z,11.23
2019-03-27T20:02:08.703Z,8.43
2019-03-27T20:04:39.895Z,7.27
2019-03-27T20:07:14.334Z,9.30
2019-03-27T20:09:45.520Z,8.20
2019-03-27T20:12:16.454Z,13.67
2019-03-27T20:14:48.029Z,7.30
2019-03-27T20:17:19.556Z,8.47
2019-03-27T20:19:50.617Z,8.67
2019-03-27T20:22:22.723Z,4.70
2019-03-27T20:24:54.183Z,5.33
2019-03-27T20:27:25.669Z,4.73
2019-03-27T20:30:00.678Z,4.60
2019-03-27T20:32:34.936Z,5.20
2019-03-27T20:35:08.212Z,7.73
2019-03-27T20:37:40.517Z,8.33
2019-03-27T20:40:12.243Z,8.10
2019-03-27T20:42:46.196Z,7.33
2019-03-27T20:45:17.318Z,7.37
2019-03-27T20:47:49.842Z,4.43
2019-03-27T20:50:21.370Z,7.77
2019-03-27T20:52:53.375Z,6.67
2019-03-27T20:55:30.683Z,6.70
2019-03-27T20:57:58.126Z,7.83
2019-03-27T21:00:29.572Z,6.07
2019-03-27T21:03:00.913Z,8.07
2019-03-27T21:05:34.963Z,9.23
2019-03-27T21:08:04.757Z,6.43
2019-03-27T21:10:36.892Z,10.03
2019-03-27T21:13:07.537Z,5.37
2019-03-27T21:15:38.893Z,8.07
2019-03-27T21:18:10.347Z,4.67
2019-03-27T21:20:42.455Z,10.10
2019-03-27T21:23:14.081Z,5.60
2019-03-27T21:25:45.386Z,9.60
2019-03-27T21:28:17.116Z,8.87
2019-03-27T21:30:48.282Z,8.47
2019-03-27T21:33:20.019Z,8.03
2019-03-27T21:35:51.353Z,5.37
2019-03-27T21:38:23.211Z,9.70
2019-03-27T21:40:54.452Z,8.50
2019-03-27T21:43:27.059Z,10.60
2019-03-27T21:45:58.749Z,8.47
2019-03-27T21:48:30.436Z,13.40
2019-03-27T21:51:01.751Z,8.87
2019-03-27T21:53:34.977Z,10.97
2019-03-27T21:56:07.350Z,11.63
2019-03-27T21:58:39.113Z,11.20
2019-03-27T22:01:07.908Z,13.63
2019-03-27T22:03:36.553Z,11.77
2019-03-27T22:06:05.808Z,10.33
2019-03-27T22:08:34.293Z,11.67
2019-03-27T22:11:03.781Z,12.50
2019-03-27T22:13:32.386Z,12.63
2019-03-27T22:16:00.924Z,12.57
2019-03-27T22:18:29.876Z,11.90
2019-03-27T22:20:58.458Z,9.63
2019-03-27T22:23:26.953Z,13.20
2019-03-27T22:25:55.536Z,11.37
2019-03-27T22:28:24.107Z,11.00
2019-03-27T22:30:52.658Z,9.30
2019-03-27T22:33:21.153Z,11.73
2019-03-27T22:35:49.745Z,13.53
2019-03-27T22:38:18.237Z,10.13
2019-03-27T22:40:46.773Z,10.77
2019-03-27T22:43:15.349Z,8.10
2019-03-27T22:45:44.179Z,10.70
2019-03-27T22:48:12.800Z,12.10
2019-03-27T22:50:41.518Z,12.70
2019-03-27T22:53:10.080Z,12.93
2019-03-27T22:55:49.170Z,10.20
2019-03-27T22:58:08.832Z,13.30
2019-03-27T23:00:41.799Z,12.63
2019-03-27T23:03:18.311Z,13.93
2019-03-27T23:05:40.610Z,10.87
2019-03-27T23:08:09.106Z,10.83
2019-03-27T23:10:37.662Z,12.67
2019-03-27T23:13:06.205Z,9.30
2019-03-27T23:15:34.735Z,13.43
2019-03-27T23:18:03.362Z,12.20
2019-03-27T23:20:31.968Z,14.53
2019-03-27T23:23:00.521Z,11.30
2019-03-27T23:25:29.014Z,14.23
2019-03-27T23:27:57.598Z,12.83
2019-03-27T23:30:26.228Z,9.90
2019-03-27T23:32:54.783Z,11.33
2019-03-27T23:35:23.375Z,13.17
2019-03-27T23:37:52.013Z,11.87
2019-03-27T23:40:22.045Z,12.37
2019-03-27T23:42:50.564Z,11.13
2019-03-27T23:45:19.128Z,11.70
2019-03-27T23:47:47.680Z,13.10
2019-03-27T23:50:16.281Z,16.30
2019-03-27T23:52:44.855Z,12.53
2019-03-27T23:55:13.803Z,11.47
2019-03-27T23:57:42.410Z,14.30
